Lawry, ME

1:59 AM EST on January 23, 2017 (GMT -0500)
Back Cove Road | | Change Station
Active Advisory: Storm Warning

Elev 26 ft 44.02 °N, 69.36 °W | Updated 3 minutes ago

Overcast
Overcast
31.7 °F
Feels Like 27 °F
N
5.0
Wind Variable Wind from NNE
Gusts 7.0 mph

Today
High -- | Low -- °F
--% Chance of Precip.
Yesterday
High -- | Low -- °F
Precip. -- in
Pressure 30.11 in
Visibility 10.0 miles
Clouds Overcast 3000 ft
Windchill 27 °F
Dew Point 23 °F
Humidity 69%
Rainfall 0.00 in
Snow Depth Not available.
7:03 AM 4:35 PM
Waning Crescent, 20% visible
METAR KRKD 230656Z AUTO 04011G18KT 10SM OVC030 M01/M06 A3010 RMK AO2 SLP195 T10061056 FZRANO
Pressure 30.11 in
Visibility 10.0 miles
Clouds Overcast 3000 ft
Windchill 27 °F
Dew Point 23 °F
Humidity 69%
Rainfall 0.00 in
Snow Depth Not available.
7:03 AM 4:35 PM
Waning Crescent, 20% visible
METAR KRKD 230656Z AUTO 04011G18KT 10SM OVC030 M01/M06 A3010 RMK AO2 SLP195 T10061056 FZRANO

Get Your Daily Forecast Email!

Thanks for signing up!

Be on the lookout for a verification email in your inbox.

You'll start receiving the daily forecast at 8 AM.

×

10-Day Weather Forecast

Almanac

Astronomy

Jan. 23, 2017 Rise Set
Actual Time
Civil Twilight
Nautical Twilight
Astronomical Twilight
Moon
Length of Visible Light
Length of Day
Tomorrow will be .
, % of the Moon is Illuminated

Today's Extremes

State Highs State Lows

Community

WunderPhotos

Upload Photos

1,962,540 photos uploaded!

WunderBlog® & News

Nearby

Air Quality

  Air Quality AQ Index Pollutant
Not available.

Snow Depth

Station Depth Elevation

Earthquake Activity

City Distance Mag. Time & Date
Minimum magnitude displayed is 2.5.

Coastal Water Temperatures

Place Temperature

Stations

Nearby Weather Stations

Station Location Temp. Windchill Dew Point Humidity Wind Precip. Elev Updated Type
                   

Watches & Warnings

Storm Warning
Issued: 3:01 PM EST Jan. 22, 2017 – National Weather Service

... Storm Warning remains in effect from 6 PM Monday to 11 am EST
Tuesday...

* winds... northeast 30 to 40 kt with gusts up to 55 kt.

* Seas... 18 to 23 feet.

Precautionary/preparedness actions...

A Storm Warning means winds of 48 to 63 knots are imminent or
occuring. Recreational boaters should remain in port... or take
shelter until winds and waves subside. Commercial vessels should
prepare for very strong winds and dangerous sea conditions... and
consider remaining in port or taking shelter in port until winds
and waves subside.